sensor_id;sensor_type;location;lat;lon;timestamp;P1;durP1;ratioP1;P2;durP2;ratioP2
8490;SDS011;4282;49.986;7.938;2023-03-20T00:00:31;5.33;;;4.60;;
8490;SDS011;4282;49.986;7.938;2023-03-20T00:03:00;5.83;;;4.63;;
8490;SDS011;4282;49.986;7.938;2023-03-20T00:05:29;6.90;;;4.40;;
8490;SDS011;4282;49.986;7.938;2023-03-20T00:07:57;6.20;;;4.00;;
8490;SDS011;4282;49.986;7.938;2023-03-20T00:10:28;6.50;;;4.00;;
8490;SDS011;4282;49.986;7.938;2023-03-20T00:13:02;5.00;;;4.27;;
8490;SDS011;4282;49.986;7.938;2023-03-20T00:15:31;6.73;;;4.30;;
8490;SDS011;4282;49.986;7.938;2023-03-20T00:18:02;5.23;;;3.87;;
8490;SDS011;4282;49.986;7.938;2023-03-20T00:20:31;4.10;;;3.57;;
8490;SDS011;4282;49.986;7.938;2023-03-20T00:22:59;4.70;;;3.67;;
8490;SDS011;4282;49.986;7.938;2023-03-20T00:25:29;4.73;;;3.23;;
8490;SDS011;4282;49.986;7.938;2023-03-20T00:27:58;4.90;;;3.50;;
8490;SDS011;4282;49.986;7.938;2023-03-20T00:30:29;5.17;;;4.23;;
8490;SDS011;4282;49.986;7.938;2023-03-20T00:32:57;5.87;;;4.83;;
8490;SDS011;4282;49.986;7.938;2023-03-20T00:35:26;6.07;;;4.10;;
8490;SDS011;4282;49.986;7.938;2023-03-20T00:37:56;5.17;;;4.60;;
8490;SDS011;4282;49.986;7.938;2023-03-20T00:40:26;5.40;;;4.77;;
8490;SDS011;4282;49.986;7.938;2023-03-20T00:42:58;5.97;;;4.00;;
8490;SDS011;4282;49.986;7.938;2023-03-20T00:45:30;4.73;;;4.23;;
8490;SDS011;4282;49.986;7.938;2023-03-20T00:48:00;3.90;;;3.50;;
8490;SDS011;4282;49.986;7.938;2023-03-20T00:50:29;5.50;;;3.87;;
8490;SDS011;4282;49.986;7.938;2023-03-20T00:52:58;6.40;;;4.07;;
8490;SDS011;4282;49.986;7.938;2023-03-20T00:55:27;5.53;;;3.60;;
8490;SDS011;4282;49.986;7.938;2023-03-20T00:57:56;7.87;;;4.37;;
8490;SDS011;4282;49.986;7.938;2023-03-20T01:00:32;7.73;;;4.00;;
8490;SDS011;4282;49.986;7.938;2023-03-20T01:03:05;4.43;;;4.03;;
8490;SDS011;4282;49.986;7.938;2023-03-20T01:05:38;6.07;;;4.43;;
8490;SDS011;4282;49.986;7.938;2023-03-20T01:08:13;6.10;;;4.17;;
8490;SDS011;4282;49.986;7.938;2023-03-20T01:10:42;6.50;;;4.13;;
8490;SDS011;4282;49.986;7.938;2023-03-20T01:13:14;5.70;;;4.13;;
8490;SDS011;4282;49.986;7.938;2023-03-20T01:15:49;5.97;;;4.27;;
8490;SDS011;4282;49.986;7.938;2023-03-20T01:18:18;5.57;;;3.63;;
8490;SDS011;4282;49.986;7.938;2023-03-20T01:20:48;5.67;;;3.90;;
8490;SDS011;4282;49.986;7.938;2023-03-20T01:23:17;5.30;;;4.00;;
8490;SDS011;4282;49.986;7.938;2023-03-20T01:25:46;4.37;;;3.93;;
8490;SDS011;4282;49.986;7.938;2023-03-20T01:28:16;5.77;;;3.90;;
8490;SDS011;4282;49.986;7.938;2023-03-20T01:30:49;4.80;;;3.70;;
8490;SDS011;4282;49.986;7.938;2023-03-20T01:33:18;5.27;;;3.20;;
8490;SDS011;4282;49.986;7.938;2023-03-20T01:35:48;4.97;;;4.00;;
8490;SDS011;4282;49.986;7.938;2023-03-20T01:38:18;4.47;;;3.30;;
8490;SDS011;4282;49.986;7.938;2023-03-20T01:40:49;5.60;;;3.30;;
8490;SDS011;4282;49.986;7.938;2023-03-20T01:43:21;3.80;;;3.40;;
8490;SDS011;4282;49.986;7.938;2023-03-20T01:45:55;4.40;;;3.67;;
8490;SDS011;4282;49.986;7.938;2023-03-20T01:48:26;5.73;;;3.30;;
8490;SDS011;4282;49.986;7.938;2023-03-20T01:51:03;4.20;;;3.30;;
8490;SDS011;4282;49.986;7.938;2023-03-20T01:53:32;3.93;;;3.20;;
8490;SDS011;4282;49.986;7.938;2023-03-20T01:56:00;5.20;;;3.43;;
8490;SDS011;4282;49.986;7.938;2023-03-20T01:58:30;4.13;;;3.73;;
8490;SDS011;4282;49.986;7.938;2023-03-20T02:01:05;4.27;;;3.40;;
8490;SDS011;4282;49.986;7.938;2023-03-20T02:03:35;4.87;;;3.80;;
8490;SDS011;4282;49.986;7.938;2023-03-20T02:06:04;3.53;;;3.20;;
8490;SDS011;4282;49.986;7.938;2023-03-20T02:08:35;4.60;;;3.40;;
8490;SDS011;4282;49.986;7.938;2023-03-20T02:11:06;4.33;;;3.20;;
8490;SDS011;4282;49.986;7.938;2023-03-20T02:13:35;3.57;;;2.70;;
8490;SDS011;4282;49.986;7.938;2023-03-20T02:16:09;3.37;;;2.70;;
8490;SDS011;4282;49.986;7.938;2023-03-20T02:18:39;3.60;;;3.07;;
8490;SDS011;4282;49.986;7.938;2023-03-20T02:24:21;5.30;;;3.20;;
8490;SDS011;4282;49.986;7.938;2023-03-20T02:27:11;6.63;;;3.33;;
8490;SDS011;4282;49.986;7.938;2023-03-20T02:29:53;3.70;;;3.27;;
8490;SDS011;4282;49.986;7.938;2023-03-20T02:33:06;6.17;;;3.80;;
8490;SDS011;4282;49.986;7.938;2023-03-20T02:36:07;3.90;;;3.27;;
8490;SDS011;4282;49.986;7.938;2023-03-20T02:39:07;5.60;;;3.93;;
8490;SDS011;4282;49.986;7.938;2023-03-20T02:41:44;6.03;;;4.23;;
8490;SDS011;4282;49.986;7.938;2023-03-20T02:44:18;5.27;;;3.40;;
8490;SDS011;4282;49.986;7.938;2023-03-20T02:46:51;4.93;;;3.87;;
8490;SDS011;4282;49.986;7.938;2023-03-20T02:49:27;7.27;;;4.13;;
8490;SDS011;4282;49.986;7.938;2023-03-20T02:52:03;7.73;;;4.70;;
8490;SDS011;4282;49.986;7.938;2023-03-20T02:54:37;5.93;;;4.33;;
8490;SDS011;4282;49.986;7.938;2023-03-20T02:57:07;7.43;;;5.10;;
8490;SDS011;4282;49.986;7.938;2023-03-20T02:59:38;7.30;;;4.67;;
8490;SDS011;4282;49.986;7.938;2023-03-20T03:02:11;9.77;;;5.17;;
8490;SDS011;4282;49.986;7.938;2023-03-20T03:04:43;8.87;;;5.80;;
8490;SDS011;4282;49.986;7.938;2023-03-20T03:07:15;8.33;;;5.80;;
8490;SDS011;4282;49.986;7.938;2023-03-20T03:09:50;11.90;;;7.43;;
8490;SDS011;4282;49.986;7.938;2023-03-20T03:12:22;9.73;;;7.03;;
8490;SDS011;4282;49.986;7.938;2023-03-20T03:14:52;11.73;;;7.77;;
8490;SDS011;4282;49.986;7.938;2023-03-20T03:17:22;12.53;;;7.70;;
8490;SDS011;4282;49.986;7.938;2023-03-20T03:19:53;10.20;;;7.43;;
8490;SDS011;4282;49.986;7.938;2023-03-20T03:22:25;11.83;;;7.77;;
8490;SDS011;4282;49.986;7.938;2023-03-20T03:24:56;14.80;;;7.97;;
8490;SDS011;4282;49.986;7.938;2023-03-20T03:27:25;11.30;;;7.93;;
8490;SDS011;4282;49.986;7.938;2023-03-20T03:29:56;12.30;;;8.03;;
8490;SDS011;4282;49.986;7.938;2023-03-20T03:32:27;12.97;;;8.73;;
8490;SDS011;4282;49.986;7.938;2023-03-20T03:34:57;15.67;;;10.07;;
8490;SDS011;4282;49.986;7.938;2023-03-20T03:37:28;19.43;;;10.90;;
8490;SDS011;4282;49.986;7.938;2023-03-20T03:40:07;17.07;;;10.23;;
8490;SDS011;4282;49.986;7.938;2023-03-20T03:42:44;28.47;;;15.23;;
8490;SDS011;4282;49.986;7.938;2023-03-20T03:45:19;36.57;;;20.93;;
8490;SDS011;4282;49.986;7.938;2023-03-20T03:47:51;42.53;;;25.10;;
8490;SDS011;4282;49.986;7.938;2023-03-20T03:50:22;44.07;;;25.50;;
8490;SDS011;4282;49.986;7.938;2023-03-20T03:52:53;46.33;;;24.87;;
8490;SDS011;4282;49.986;7.938;2023-03-20T03:55:27;46.33;;;26.10;;
8490;SDS011;4282;49.986;7.938;2023-03-20T03:57:57;47.67;;;26.40;;
8490;SDS011;4282;49.986;7.938;2023-03-20T04:00:28;50.23;;;26.67;;
8490;SDS011;4282;49.986;7.938;2023-03-20T04:02:56;45.50;;;24.90;;
8490;SDS011;4282;49.986;7.938;2023-03-20T04:05:26;44.70;;;25.13;;
8490;SDS011;4282;49.986;7.938;2023-03-20T04:07:58;47.10;;;25.90;;
8490;SDS011;4282;49.986;7.938;2023-03-20T04:10:32;48.40;;;26.03;;
8490;SDS011;4282;49.986;7.938;2023-03-20T04:13:00;50.07;;;27.50;;
8490;SDS011;4282;49.986;7.938;2023-03-20T04:15:28;49.63;;;26.63;;
8490;SDS011;4282;49.986;7.938;2023-03-20T04:17:57;49.60;;;28.10;;
8490;SDS011;4282;49.986;7.938;2023-03-20T04:20:25;49.17;;;27.07;;
8490;SDS011;4282;49.986;7.938;2023-03-20T04:22:53;49.50;;;25.70;;
8490;SDS011;4282;49.986;7.938;2023-03-20T04:25:22;50.00;;;26.10;;
8490;SDS011;4282;49.986;7.938;2023-03-20T04:27:54;50.47;;;26.63;;
8490;SDS011;4282;49.986;7.938;2023-03-20T04:30:22;50.73;;;26.67;;
8490;SDS011;4282;49.986;7.938;2023-03-20T04:32:51;48.00;;;26.50;;
8490;SDS011;4282;49.986;7.938;2023-03-20T04:35:19;52.07;;;27.37;;
8490;SDS011;4282;49.986;7.938;2023-03-20T04:37:47;51.17;;;26.70;;
8490;SDS011;4282;49.986;7.938;2023-03-20T04:40:16;47.77;;;27.30;;
8490;SDS011;4282;49.986;7.938;2023-03-20T04:42:44;44.73;;;26.13;;
8490;SDS011;4282;49.986;7.938;2023-03-20T04:45:15;48.07;;;27.13;;
8490;SDS011;4282;49.986;7.938;2023-03-20T04:47:44;50.03;;;27.73;;
8490;SDS011;4282;49.986;7.938;2023-03-20T04:50:12;46.77;;;26.20;;
8490;SDS011;4282;49.986;7.938;2023-03-20T04:52:40;53.00;;;27.40;;
8490;SDS011;4282;49.986;7.938;2023-03-20T04:55:09;49.13;;;25.50;;
8490;SDS011;4282;49.986;7.938;2023-03-20T04:57:37;47.07;;;25.77;;
8490;SDS011;4282;49.986;7.938;2023-03-20T05:00:06;43.27;;;25.33;;
8490;SDS011;4282;49.986;7.938;2023-03-20T05:02:38;48.67;;;27.17;;
8490;SDS011;4282;49.986;7.938;2023-03-20T05:05:06;51.93;;;27.27;;
8490;SDS011;4282;49.986;7.938;2023-03-20T05:07:35;44.80;;;26.20;;
8490;SDS011;4282;49.986;7.938;2023-03-20T05:10:04;49.97;;;25.33;;
8490;SDS011;4282;49.986;7.938;2023-03-20T05:12:33;45.47;;;25.10;;
8490;SDS011;4282;49.986;7.938;2023-03-20T05:15:01;49.37;;;26.27;;
8490;SDS011;4282;49.986;7.938;2023-03-20T05:17:29;45.57;;;25.30;;
8490;SDS011;4282;49.986;7.938;2023-03-20T05:20:00;43.50;;;24.90;;
8490;SDS011;4282;49.986;7.938;2023-03-20T05:22:29;46.20;;;24.70;;
8490;SDS011;4282;49.986;7.938;2023-03-20T05:24:57;42.47;;;24.77;;
8490;SDS011;4282;49.986;7.938;2023-03-20T05:27:25;47.93;;;27.00;;
8490;SDS011;4282;49.986;7.938;2023-03-20T05:29:54;47.73;;;26.30;;
8490;SDS011;4282;49.986;7.938;2023-03-20T05:32:22;42.00;;;24.20;;
8490;SDS011;4282;49.986;7.938;2023-03-20T05:34:51;48.60;;;26.10;;
8490;SDS011;4282;49.986;7.938;2023-03-20T05:37:22;43.43;;;25.07;;
8490;SDS011;4282;49.986;7.938;2023-03-20T05:39:51;48.43;;;25.67;;
8490;SDS011;4282;49.986;7.938;2023-03-20T05:42:19;42.13;;;23.60;;
8490;SDS011;4282;49.986;7.938;2023-03-20T05:44:47;45.53;;;24.43;;
8490;SDS011;4282;49.986;7.938;2023-03-20T05:47:15;42.17;;;24.03;;
8490;SDS011;4282;49.986;7.938;2023-03-20T05:49:44;40.63;;;23.47;;
8490;SDS011;4282;49.986;7.938;2023-03-20T05:52:12;42.27;;;23.33;;
8490;SDS011;4282;49.986;7.938;2023-03-20T05:54:43;45.53;;;26.53;;
8490;SDS011;4282;49.986;7.938;2023-03-20T05:57:11;49.70;;;25.30;;
8490;SDS011;4282;49.986;7.938;2023-03-20T05:59:40;47.43;;;24.93;;
8490;SDS011;4282;49.986;7.938;2023-03-20T06:02:08;45.47;;;24.90;;
8490;SDS011;4282;49.986;7.938;2023-03-20T06:04:36;46.70;;;25.27;;
8490;SDS011;4282;49.986;7.938;2023-03-20T06:07:05;45.17;;;24.50;;
8490;SDS011;4282;49.986;7.938;2023-03-20T06:09:33;47.50;;;23.97;;
8490;SDS011;4282;49.986;7.938;2023-03-20T06:12:04;43.03;;;24.53;;
8490;SDS011;4282;49.986;7.938;2023-03-20T06:14:33;49.20;;;25.30;;
8490;SDS011;4282;49.986;7.938;2023-03-20T06:17:01;46.60;;;25.90;;
8490;SDS011;4282;49.986;7.938;2023-03-20T06:19:30;49.90;;;25.60;;
8490;SDS011;4282;49.986;7.938;2023-03-20T06:21:58;45.73;;;23.53;;
8490;SDS011;4282;49.986;7.938;2023-03-20T06:24:26;43.07;;;24.47;;
8490;SDS011;4282;49.986;7.938;2023-03-20T06:26:54;47.00;;;24.53;;
8490;SDS011;4282;49.986;7.938;2023-03-20T06:29:25;45.50;;;24.33;;
8490;SDS011;4282;49.986;7.938;2023-03-20T06:31:54;50.73;;;25.50;;
8490;SDS011;4282;49.986;7.938;2023-03-20T06:34:22;47.70;;;25.30;;
8490;SDS011;4282;49.986;7.938;2023-03-20T06:36:51;45.30;;;24.20;;
8490;SDS011;4282;49.986;7.938;2023-03-20T06:39:20;45.83;;;22.73;;
8490;SDS011;4282;49.986;7.938;2023-03-20T06:41:49;48.90;;;23.87;;
8490;SDS011;4282;49.986;7.938;2023-03-20T06:44:17;44.77;;;23.87;;
8490;SDS011;4282;49.986;7.938;2023-03-20T06:46:48;45.30;;;23.77;;
8490;SDS011;4282;49.986;7.938;2023-03-20T06:49:16;46.13;;;26.27;;
8490;SDS011;4282;49.986;7.938;2023-03-20T06:51:45;48.40;;;25.40;;
8490;SDS011;4282;49.986;7.938;2023-03-20T06:54:13;46.97;;;25.33;;
8490;SDS011;4282;49.986;7.938;2023-03-20T06:56:41;47.77;;;25.97;;
8490;SDS011;4282;49.986;7.938;2023-03-20T06:59:10;49.83;;;24.90;;
8490;SDS011;4282;49.986;7.938;2023-03-20T07:01:39;52.67;;;26.23;;
8490;SDS011;4282;49.986;7.938;2023-03-20T07:04:09;47.03;;;24.77;;
8490;SDS011;4282;49.986;7.938;2023-03-20T07:06:38;42.63;;;23.37;;
8490;SDS011;4282;49.986;7.938;2023-03-20T07:09:07;50.80;;;24.50;;
8490;SDS011;4282;49.986;7.938;2023-03-20T07:11:35;55.20;;;26.77;;
8490;SDS011;4282;49.986;7.938;2023-03-20T07:14:04;50.63;;;25.80;;
8490;SDS011;4282;49.986;7.938;2023-03-20T07:16:32;49.87;;;26.53;;
8490;SDS011;4282;49.986;7.938;2023-03-20T07:19:01;50.20;;;25.57;;
8490;SDS011;4282;49.986;7.938;2023-03-20T07:21:32;51.37;;;26.93;;
8490;SDS011;4282;49.986;7.938;2023-03-20T07:24:01;44.50;;;24.97;;
8490;SDS011;4282;49.986;7.938;2023-03-20T07:26:30;56.63;;;26.13;;
8490;SDS011;4282;49.986;7.938;2023-03-20T07:28:58;53.93;;;26.93;;
8490;SDS011;4282;49.986;7.938;2023-03-20T07:31:27;48.73;;;25.60;;
8490;SDS011;4282;49.986;7.938;2023-03-20T07:33:56;47.17;;;25.87;;
8490;SDS011;4282;49.986;7.938;2023-03-20T07:36:24;45.73;;;23.07;;
8490;SDS011;4282;49.986;7.938;2023-03-20T07:38:55;39.93;;;23.57;;
8490;SDS011;4282;49.986;7.938;2023-03-20T07:41:24;49.73;;;23.83;;
8490;SDS011;4282;49.986;7.938;2023-03-20T07:43:52;42.93;;;23.47;;
8490;SDS011;4282;49.986;7.938;2023-03-20T07:46:20;43.57;;;23.10;;
8490;SDS011;4282;49.986;7.938;2023-03-20T07:48:49;38.93;;;22.13;;
8490;SDS011;4282;49.986;7.938;2023-03-20T07:51:17;44.17;;;23.70;;
8490;SDS011;4282;49.986;7.938;2023-03-20T07:53:46;38.33;;;22.23;;
8490;SDS011;4282;49.986;7.938;2023-03-20T07:56:17;40.97;;;23.43;;
8490;SDS011;4282;49.986;7.938;2023-03-20T07:58:45;34.17;;;19.63;;
8490;SDS011;4282;49.986;7.938;2023-03-20T08:01:13;41.00;;;21.47;;
8490;SDS011;4282;49.986;7.938;2023-03-20T08:03:42;38.10;;;22.20;;
8490;SDS011;4282;49.986;7.938;2023-03-20T08:06:10;38.60;;;21.97;;
8490;SDS011;4282;49.986;7.938;2023-03-20T08:08:38;37.83;;;21.50;;
8490;SDS011;4282;49.986;7.938;2023-03-20T08:11:07;35.47;;;21.80;;
8490;SDS011;4282;49.986;7.938;2023-03-20T08:13:38;36.03;;;21.13;;
8490;SDS011;4282;49.986;7.938;2023-03-20T08:16:06;37.30;;;23.07;;
8490;SDS011;4282;49.986;7.938;2023-03-20T08:18:35;33.20;;;20.30;;
8490;SDS011;4282;49.986;7.938;2023-03-20T08:21:04;32.07;;;19.80;;
8490;SDS011;4282;49.986;7.938;2023-03-20T08:23:32;29.47;;;18.80;;
8490;SDS011;4282;49.986;7.938;2023-03-20T08:26:01;28.57;;;16.53;;
8490;SDS011;4282;49.986;7.938;2023-03-20T08:28:29;23.37;;;14.37;;
8490;SDS011;4282;49.986;7.938;2023-03-20T08:31:00;27.50;;;16.70;;
8490;SDS011;4282;49.986;7.938;2023-03-20T08:33:28;29.40;;;18.40;;
8490;SDS011;4282;49.986;7.938;2023-03-20T08:35:57;31.67;;;19.33;;
8490;SDS011;4282;49.986;7.938;2023-03-20T08:38:26;30.57;;;18.57;;
8490;SDS011;4282;49.986;7.938;2023-03-20T08:40:54;29.93;;;17.70;;
8490;SDS011;4282;49.986;7.938;2023-03-20T08:43:22;28.97;;;18.10;;
8490;SDS011;4282;49.986;7.938;2023-03-20T08:45:51;28.77;;;17.83;;
8490;SDS011;4282;49.986;7.938;2023-03-20T08:48:22;29.87;;;17.60;;
8490;SDS011;4282;49.986;7.938;2023-03-20T08:50:51;26.97;;;17.40;;
8490;SDS011;4282;49.986;7.938;2023-03-20T08:53:19;26.53;;;17.23;;
8490;SDS011;4282;49.986;7.938;2023-03-20T08:55:47;30.30;;;18.17;;
8490;SDS011;4282;49.986;7.938;2023-03-20T08:58:16;29.20;;;17.10;;
8490;SDS011;4282;49.986;7.938;2023-03-20T09:00:45;27.90;;;17.40;;
8490;SDS011;4282;49.986;7.938;2023-03-20T09:03:13;29.43;;;17.03;;
8490;SDS011;4282;49.986;7.938;2023-03-20T09:05:46;28.20;;;17.23;;
8490;SDS011;4282;49.986;7.938;2023-03-20T09:08:15;26.57;;;15.83;;
8490;SDS011;4282;49.986;7.938;2023-03-20T09:10:45;28.60;;;18.17;;
8490;SDS011;4282;49.986;7.938;2023-03-20T09:13:13;28.97;;;18.07;;
8490;SDS011;4282;49.986;7.938;2023-03-20T09:15:42;28.13;;;18.27;;
8490;SDS011;4282;49.986;7.938;2023-03-20T09:18:10;30.77;;;17.50;;
8490;SDS011;4282;49.986;7.938;2023-03-20T09:20:39;25.50;;;16.33;;
8490;SDS011;4282;49.986;7.938;2023-03-20T09:23:10;25.37;;;16.33;;
8490;SDS011;4282;49.986;7.938;2023-03-20T09:25:38;24.57;;;16.60;;
8490;SDS011;4282;49.986;7.938;2023-03-20T09:28:06;24.27;;;17.37;;
8490;SDS011;4282;49.986;7.938;2023-03-20T09:30:35;22.07;;;14.67;;
8490;SDS011;4282;49.986;7.938;2023-03-20T09:33:03;24.23;;;14.90;;
8490;SDS011;4282;49.986;7.938;2023-03-20T09:35:31;21.03;;;13.97;;
8490;SDS011;4282;49.986;7.938;2023-03-20T09:38:00;19.50;;;13.43;;
8490;SDS011;4282;49.986;7.938;2023-03-20T09:40:32;17.67;;;12.93;;
8490;SDS011;4282;49.986;7.938;2023-03-20T09:43:09;12.53;;;8.27;;
8490;SDS011;4282;49.986;7.938;2023-03-20T09:45:45;15.20;;;9.60;;
8490;SDS011;4282;49.986;7.938;2023-03-20T09:48:21;10.70;;;7.50;;
8490;SDS011;4282;49.986;7.938;2023-03-20T09:50:54;9.00;;;6.67;;
8490;SDS011;4282;49.986;7.938;2023-03-20T09:53:28;8.33;;;6.07;;
8490;SDS011;4282;49.986;7.938;2023-03-20T09:56:01;8.67;;;6.60;;
8490;SDS011;4282;49.986;7.938;2023-03-20T09:58:30;7.87;;;5.47;;
8490;SDS011;4282;49.986;7.938;2023-03-20T10:01:00;7.20;;;6.00;;
8490;SDS011;4282;49.986;7.938;2023-03-20T10:03:31;10.03;;;6.70;;
8490;SDS011;4282;49.986;7.938;2023-03-20T10:06:08;7.30;;;6.00;;
8490;SDS011;4282;49.986;7.938;2023-03-20T10:08:39;8.43;;;6.17;;
8490;SDS011;4282;49.986;7.938;2023-03-20T10:11:14;8.07;;;5.90;;
8490;SDS011;4282;49.986;7.938;2023-03-20T10:13:55;7.50;;;4.90;;
8490;SDS011;4282;49.986;7.938;2023-03-20T10:16:36;6.30;;;4.70;;
8490;SDS011;4282;49.986;7.938;2023-03-20T10:19:11;8.10;;;4.47;;
8490;SDS011;4282;49.986;7.938;2023-03-20T10:21:46;7.20;;;5.53;;
8490;SDS011;4282;49.986;7.938;2023-03-20T10:24:16;9.13;;;6.00;;
8490;SDS011;4282;49.986;7.938;2023-03-20T10:26:50;7.27;;;5.80;;
8490;SDS011;4282;49.986;7.938;2023-03-20T10:29:22;8.13;;;4.90;;
8490;SDS011;4282;49.986;7.938;2023-03-20T10:31:56;7.40;;;5.57;;
8490;SDS011;4282;49.986;7.938;2023-03-20T10:34:31;6.73;;;4.93;;
8490;SDS011;4282;49.986;7.938;2023-03-20T10:37:12;7.70;;;4.47;;
8490;SDS011;4282;49.986;7.938;2023-03-20T10:39:51;5.30;;;3.90;;
8490;SDS011;4282;49.986;7.938;2023-03-20T10:42:27;5.47;;;4.23;;
8490;SDS011;4282;49.986;7.938;2023-03-20T10:44:58;4.60;;;3.77;;
8490;SDS011;4282;49.986;7.938;2023-03-20T10:47:29;5.20;;;3.97;;
8490;SDS011;4282;49.986;7.938;2023-03-20T10:50:01;4.93;;;3.90;;
8490;SDS011;4282;49.986;7.938;2023-03-20T10:52:30;6.43;;;3.60;;
8490;SDS011;4282;49.986;7.938;2023-03-20T10:55:02;6.43;;;3.63;;
8490;SDS011;4282;49.986;7.938;2023-03-20T10:57:35;4.27;;;3.83;;
8490;SDS011;4282;49.986;7.938;2023-03-20T11:00:06;5.73;;;4.03;;
8490;SDS011;4282;49.986;7.938;2023-03-20T11:02:40;4.77;;;3.70;;
8490;SDS011;4282;49.986;7.938;2023-03-20T11:05:10;4.63;;;3.63;;
8490;SDS011;4282;49.986;7.938;2023-03-20T11:07:49;5.23;;;3.13;;
8490;SDS011;4282;49.986;7.938;2023-03-20T11:10:18;4.77;;;3.30;;
8490;SDS011;4282;49.986;7.938;2023-03-20T11:12:49;6.07;;;3.33;;
8490;SDS011;4282;49.986;7.938;2023-03-20T11:15:22;4.60;;;3.37;;
8490;SDS011;4282;49.986;7.938;2023-03-20T11:17:54;4.53;;;3.07;;
8490;SDS011;4282;49.986;7.938;2023-03-20T11:20:24;3.60;;;2.83;;
8490;SDS011;4282;49.986;7.938;2023-03-20T11:22:56;3.57;;;2.53;;
8490;SDS011;4282;49.986;7.938;2023-03-20T11:25:29;3.47;;;2.57;;
8490;SDS011;4282;49.986;7.938;2023-03-20T11:30:58;3.17;;;2.60;;
8490;SDS011;4282;49.986;7.938;2023-03-20T11:33:28;2.90;;;2.60;;
8490;SDS011;4282;49.986;7.938;2023-03-20T11:35:57;4.20;;;2.43;;
8490;SDS011;4282;49.986;7.938;2023-03-20T11:38:26;4.03;;;3.10;;
8490;SDS011;4282;49.986;7.938;2023-03-20T11:40:57;4.83;;;3.67;;
8490;SDS011;4282;49.986;7.938;2023-03-20T11:43:28;3.77;;;2.43;;
8490;SDS011;4282;49.986;7.938;2023-03-20T11:45:57;3.30;;;2.50;;
8490;SDS011;4282;49.986;7.938;2023-03-20T11:48:35;4.50;;;3.00;;
8490;SDS011;4282;49.986;7.938;2023-03-20T11:51:05;2.80;;;2.40;;
8490;SDS011;4282;49.986;7.938;2023-03-20T11:53:34;2.83;;;2.40;;
8490;SDS011;4282;49.986;7.938;2023-03-20T11:56:05;3.03;;;2.40;;
8490;SDS011;4282;49.986;7.938;2023-03-20T11:58:45;2.83;;;2.30;;
8490;SDS011;4282;49.986;7.938;2023-03-20T12:01:16;2.83;;;1.90;;
8490;SDS011;4282;49.986;7.938;2023-03-20T12:03:46;2.77;;;2.07;;
8490;SDS011;4282;49.986;7.938;2023-03-20T12:06:22;4.13;;;2.20;;
8490;SDS011;4282;49.986;7.938;2023-03-20T12:08:53;3.37;;;2.20;;
8490;SDS011;4282;49.986;7.938;2023-03-20T12:11:30;3.60;;;2.20;;
8490;SDS011;4282;49.986;7.938;2023-03-20T12:14:07;3.97;;;2.13;;
8490;SDS011;4282;49.986;7.938;2023-03-20T12:16:42;3.13;;;2.33;;
8490;SDS011;4282;49.986;7.938;2023-03-20T12:19:13;3.67;;;2.50;;
8490;SDS011;4282;49.986;7.938;2023-03-20T12:21:43;4.00;;;2.03;;
8490;SDS011;4282;49.986;7.938;2023-03-20T12:24:16;3.00;;;2.10;;
8490;SDS011;4282;49.986;7.938;2023-03-20T12:26:53;2.90;;;2.27;;
8490;SDS011;4282;49.986;7.938;2023-03-20T12:29:27;4.23;;;2.33;;
8490;SDS011;4282;49.986;7.938;2023-03-20T12:32:00;2.83;;;2.37;;
8490;SDS011;4282;49.986;7.938;2023-03-20T12:34:32;2.80;;;2.10;;
8490;SDS011;4282;49.986;7.938;2023-03-20T12:37:02;3.20;;;2.53;;
8490;SDS011;4282;49.986;7.938;2023-03-20T12:39:31;3.93;;;2.70;;
8490;SDS011;4282;49.986;7.938;2023-03-20T12:42:05;4.57;;;2.60;;
8490;SDS011;4282;49.986;7.938;2023-03-20T12:44:40;4.10;;;3.20;;
8490;SDS011;4282;49.986;7.938;2023-03-20T12:47:15;5.57;;;3.57;;
8490;SDS011;4282;49.986;7.938;2023-03-20T12:49:51;5.35;;;3.35;;
8490;SDS011;4282;49.986;7.938;2023-03-20T12:52:26;3.97;;;3.10;;
8490;SDS011;4282;49.986;7.938;2023-03-20T12:57:59;4.50;;;3.40;;
8490;SDS011;4282;49.986;7.938;2023-03-20T13:00:34;3.83;;;3.10;;
8490;SDS011;4282;49.986;7.938;2023-03-20T13:03:08;3.30;;;2.80;;
8490;SDS011;4282;49.986;7.938;2023-03-20T13:05:45;3.73;;;3.00;;
8490;SDS011;4282;49.986;7.938;2023-03-20T13:11:10;6.27;;;3.83;;
8490;SDS011;4282;49.986;7.938;2023-03-20T13:13:44;6.23;;;3.80;;
8490;SDS011;4282;49.986;7.938;2023-03-20T13:16:19;4.80;;;3.43;;
8490;SDS011;4282;49.986;7.938;2023-03-20T13:18:55;4.57;;;3.00;;
8490;SDS011;4282;49.986;7.938;2023-03-20T13:21:30;2.43;;;2.23;;
8490;SDS011;4282;49.986;7.938;2023-03-20T13:24:03;4.07;;;2.80;;
8490;SDS011;4282;49.986;7.938;2023-03-20T13:26:48;3.10;;;2.67;;
8490;SDS011;4282;49.986;7.938;2023-03-20T13:29:21;4.47;;;2.93;;
8490;SDS011;4282;49.986;7.938;2023-03-20T13:31:58;4.77;;;2.57;;
8490;SDS011;4282;49.986;7.938;2023-03-20T13:34:34;4.60;;;3.40;;
8490;SDS011;4282;49.986;7.938;2023-03-20T13:37:11;3.37;;;2.60;;
8490;SDS011;4282;49.986;7.938;2023-03-20T13:39:42;5.57;;;3.20;;
8490;SDS011;4282;49.986;7.938;2023-03-20T13:42:13;4.40;;;2.83;;
8490;SDS011;4282;49.986;7.938;2023-03-20T13:44:43;4.40;;;3.40;;
8490;SDS011;4282;49.986;7.938;2023-03-20T13:47:16;4.43;;;2.70;;
8490;SDS011;4282;49.986;7.938;2023-03-20T13:49:49;4.27;;;2.73;;
8490;SDS011;4282;49.986;7.938;2023-03-20T13:52:21;3.10;;;2.00;;
8490;SDS011;4282;49.986;7.938;2023-03-20T13:54:53;2.17;;;1.80;;
8490;SDS011;4282;49.986;7.938;2023-03-20T13:57:34;1.70;;;1.50;;
8490;SDS011;4282;49.986;7.938;2023-03-20T14:00:16;2.17;;;1.53;;
8490;SDS011;4282;49.986;7.938;2023-03-20T14:02:55;1.87;;;1.50;;
8490;SDS011;4282;49.986;7.938;2023-03-20T14:05:37;2.27;;;1.70;;
8490;SDS011;4282;49.986;7.938;2023-03-20T14:08:19;3.03;;;1.90;;
8490;SDS011;4282;49.986;7.938;2023-03-20T14:10:53;3.27;;;1.97;;
8490;SDS011;4282;49.986;7.938;2023-03-20T14:13:22;2.30;;;1.70;;
8490;SDS011;4282;49.986;7.938;2023-03-20T14:15:52;3.10;;;2.23;;
8490;SDS011;4282;49.986;7.938;2023-03-20T14:18:24;2.37;;;1.63;;
8490;SDS011;4282;49.986;7.938;2023-03-20T14:20:54;3.17;;;1.87;;
8490;SDS011;4282;49.986;7.938;2023-03-20T14:23:33;3.33;;;1.50;;
8490;SDS011;4282;49.986;7.938;2023-03-20T14:26:04;2.67;;;1.80;;
8490;SDS011;4282;49.986;7.938;2023-03-20T14:28:47;2.20;;;1.97;;
8490;SDS011;4282;49.986;7.938;2023-03-20T14:31:21;3.93;;;2.63;;
8490;SDS011;4282;49.986;7.938;2023-03-20T14:34:06;3.87;;;2.43;;
8490;SDS011;4282;49.986;7.938;2023-03-20T14:36:51;3.73;;;1.87;;
8490;SDS011;4282;49.986;7.938;2023-03-20T14:42:19;3.67;;;1.87;;
8490;SDS011;4282;49.986;7.938;2023-03-20T14:47:57;2.87;;;1.70;;
8490;SDS011;4282;49.986;7.938;2023-03-20T14:50:32;3.60;;;2.00;;
8490;SDS011;4282;49.986;7.938;2023-03-20T14:53:07;4.30;;;2.20;;
8490;SDS011;4282;49.986;7.938;2023-03-20T14:55:50;5.00;;;2.50;;
8490;SDS011;4282;49.986;7.938;2023-03-20T14:58:45;5.80;;;2.60;;
8490;SDS011;4282;49.986;7.938;2023-03-20T15:01:25;2.83;;;1.67;;
8490;SDS011;4282;49.986;7.938;2023-03-20T15:04:04;4.50;;;2.50;;
8490;SDS011;4282;49.986;7.938;2023-03-20T15:06:40;3.33;;;2.30;;
8490;SDS011;4282;49.986;7.938;2023-03-20T15:09:10;4.97;;;2.70;;
8490;SDS011;4282;49.986;7.938;2023-03-20T15:11:38;3.43;;;2.37;;
8490;SDS011;4282;49.986;7.938;2023-03-20T15:14:07;3.33;;;2.23;;
8490;SDS011;4282;49.986;7.938;2023-03-20T15:16:37;4.17;;;2.40;;
8490;SDS011;4282;49.986;7.938;2023-03-20T15:19:07;4.37;;;2.70;;
8490;SDS011;4282;49.986;7.938;2023-03-20T15:21:45;5.97;;;2.37;;
8490;SDS011;4282;49.986;7.938;2023-03-20T15:24:16;4.40;;;3.67;;
8490;SDS011;4282;49.986;7.938;2023-03-20T15:26:49;3.83;;;2.73;;
8490;SDS011;4282;49.986;7.938;2023-03-20T15:29:19;3.57;;;2.57;;
8490;SDS011;4282;49.986;7.938;2023-03-20T15:31:50;3.47;;;2.47;;
8490;SDS011;4282;49.986;7.938;2023-03-20T15:34:20;4.60;;;2.63;;
8490;SDS011;4282;49.986;7.938;2023-03-20T15:36:52;4.03;;;2.60;;
8490;SDS011;4282;49.986;7.938;2023-03-20T15:39:23;3.57;;;2.43;;
8490;SDS011;4282;49.986;7.938;2023-03-20T15:41:54;5.83;;;2.53;;
8490;SDS011;4282;49.986;7.938;2023-03-20T15:44:23;4.77;;;2.80;;
8490;SDS011;4282;49.986;7.938;2023-03-20T15:46:55;4.00;;;2.00;;